Time;durP1;ratioP1;P1;durP2;ratioP2;P2;SDS_P1;SDS_P2;PMS_P1;PMS_P2;Temp;Humidity;BMP_temperature;BMP_pressure;BME280_temperature;BME280_humidity;BME280_pressure;Samples;Min_cycle;Max_cycle;Signal;HPM_P1;HPM_P2
2022/10/29 00:00:45;;;;;;;40.22;8.10;;;;;;;;;;5054759;28;20447;-76
2022/10/29 00:03:11;;;;;;;31.13;7.55;;;;;;;;;;5054251;28;20036;-75
2022/10/29 00:05:37;;;;;;;41.00;8.48;;;;;;;;;;5054492;28;20021;-75
2022/10/29 00:08:03;;;;;;;40.30;8.52;;;;;;;;;;5066912;28;20021;-74
2022/10/29 00:10:29;;;;;;;39.25;9.27;;;;;;;;;;5043020;28;20032;-76
2022/10/29 00:12:55;;;;;;;34.53;8.65;;;;;;;;;;5056703;28;20033;-76
2022/10/29 00:15:21;;;;;;;30.83;8.05;;;;;;;;;;5057701;28;20083;-76
2022/10/29 00:17:47;;;;;;;37.70;8.20;;;;;;;;;;5058920;28;20406;-75
2022/10/29 00:20:13;;;;;;;35.67;8.52;;;;;;;;;;5060282;28;20124;-76
2022/10/29 00:22:39;;;;;;;41.00;8.30;;;;;;;;;;5059546;28;20419;-75
2022/10/29 00:25:05;;;;;;;41.65;8.45;;;;;;;;;;5059157;28;20095;-75
2022/10/29 00:27:31;;;;;;;41.53;8.25;;;;;;;;;;5056193;28;20028;-76
2022/10/29 00:29:57;;;;;;;29.80;7.22;;;;;;;;;;5054284;28;20031;-75
2022/10/29 00:32:23;;;;;;;33.08;7.22;;;;;;;;;;5053527;28;20036;-76
2022/10/29 00:34:49;;;;;;;27.42;6.90;;;;;;;;;;5053482;28;20044;-76
2022/10/29 00:37:15;;;;;;;36.13;7.55;;;;;;;;;;5053048;28;20116;-76
2022/10/29 00:39:41;;;;;;;34.00;7.45;;;;;;;;;;5053361;28;20060;-75
2022/10/29 00:42:12;;;;;;;33.50;7.93;;;;;;;;;;5053282;28;20025;-75
2022/10/29 00:44:39;;;;;;;34.10;6.93;;;;;;;;;;5053280;28;20492;-74
2022/10/29 00:47:15;;;;;;;37.70;6.72;;;;;;;;;;5053113;28;20367;-75
2022/10/29 00:49:42;;;;;;;39.25;7.50;;;;;;;;;;5053397;28;20485;-76
2022/10/29 00:52:08;;;;;;;29.50;7.28;;;;;;;;;;5035360;28;20175;-76
2022/10/29 00:54:38;;;;;;;46.45;7.82;;;;;;;;;;5053163;28;20516;-75
2022/10/29 00:57:07;;;;;;;31.85;7.80;;;;;;;;;;5034624;28;20025;-76
2022/10/29 00:59:34;;;;;;;37.28;7.07;;;;;;;;;;5053016;28;20477;-76
2022/10/29 01:01:59;;;;;;;32.83;7.20;;;;;;;;;;5052931;28;20036;-76
2022/10/29 01:04:26;;;;;;;37.90;7.82;;;;;;;;;;5053140;28;20385;-75
2022/10/29 01:06:52;;;;;;;35.90;7.47;;;;;;;;;;5052684;28;20031;-76
2022/10/29 01:09:18;;;;;;;31.88;6.80;;;;;;;;;;5053026;28;20025;-76
2022/10/29 01:11:59;;;;;;;40.58;7.68;;;;;;;;;;5052888;28;20025;-74
2022/10/29 01:14:33;;;;;;;34.70;7.00;;;;;;;;;;5052939;28;20567;-76
2022/10/29 01:17:04;;;;;;;39.88;8.98;;;;;;;;;;5035098;28;20028;-75
2022/10/29 01:19:42;;;;;;;35.90;8.15;;;;;;;;;;5053389;28;20051;-75
2022/10/29 01:22:08;;;;;;;33.25;7.30;;;;;;;;;;5052441;28;20167;-75
2022/10/29 01:24:45;;;;;;;48.30;8.00;;;;;;;;;;5052680;28;20101;-75
2022/10/29 01:27:23;;;;;;;29.63;6.53;;;;;;;;;;5052260;28;20020;-75
2022/10/29 01:30:09;;;;;;;33.13;6.45;;;;;;;;;;5052448;28;20029;-74
2022/10/29 01:32:42;;;;;;;31.65;6.85;;;;;;;;;;5052051;28;20037;-75
2022/10/29 01:35:22;;;;;;;30.10;7.32;;;;;;;;;;5052337;28;20477;-75
2022/10/29 01:38:06;;;;;;;49.75;8.77;;;;;;;;;;5051403;28;20036;-76
2022/10/29 01:40:32;;;;;;;40.50;8.10;;;;;;;;;;5052949;28;20029;-76
2022/10/29 01:43:04;;;;;;;44.15;7.65;;;;;;;;;;5052399;28;20456;-76
2022/10/29 01:45:33;;;;;;;36.88;7.70;;;;;;;;;;5053183;28;20532;-76
2022/10/29 01:48:02;;;;;;;34.13;7.10;;;;;;;;;;5053628;28;20290;-76
2022/10/29 01:50:28;;;;;;;30.30;7.32;;;;;;;;;;5052714;28;20377;-75
2022/10/29 01:52:55;;;;;;;38.65;7.40;;;;;;;;;;5052413;28;20079;-76
2022/10/29 01:55:28;;;;;;;38.00;8.10;;;;;;;;;;5052006;28;20032;-75
2022/10/29 01:57:54;;;;;;;36.55;8.55;;;;;;;;;;5052017;28;20017;-76
2022/10/29 02:00:20;;;;;;;31.10;7.47;;;;;;;;;;5051914;28;20047;-76
2022/10/29 02:02:57;;;;;;;34.60;7.28;;;;;;;;;;5051828;28;20021;-75
2022/10/29 02:05:23;;;;;;;46.72;8.15;;;;;;;;;;5051823;28;20155;-75
2022/10/29 02:07:49;;;;;;;39.28;8.32;;;;;;;;;;5051271;28;20107;-75
2022/10/29 02:10:21;;;;;;;35.85;7.95;;;;;;;;;;5053016;28;20478;-75
2022/10/29 02:12:52;;;;;;;43.92;7.95;;;;;;;;;;5054278;28;20032;-74
2022/10/29 02:15:26;;;;;;;41.15;7.70;;;;;;;;;;5055752;28;20025;-75
2022/10/29 02:17:52;;;;;;;37.58;7.90;;;;;;;;;;5035804;28;20035;-76
2022/10/29 02:20:18;;;;;;;37.90;8.30;;;;;;;;;;5052677;28;20096;-76
2022/10/29 02:22:44;;;;;;;37.53;8.63;;;;;;;;;;5052904;28;20033;-75
2022/10/29 02:25:10;;;;;;;34.80;7.57;;;;;;;;;;5054549;28;20112;-75
2022/10/29 02:27:36;;;;;;;36.83;8.13;;;;;;;;;;5053896;28;20053;-76
2022/10/29 02:30:03;;;;;;;43.65;8.50;;;;;;;;;;5053935;28;20025;-74
2022/10/29 02:32:31;;;;;;;37.10;8.43;;;;;;;;;;5054048;28;20032;-75
2022/10/29 02:34:57;;;;;;;45.15;9.00;;;;;;;;;;5067611;28;20074;-75
2022/10/29 02:37:23;;;;;;;38.05;9.45;;;;;;;;;;5040745;28;20111;-75
2022/10/29 02:39:49;;;;;;;37.25;9.63;;;;;;;;;;5034038;28;20051;-75
2022/10/29 02:42:15;;;;;;;34.22;8.25;;;;;;;;;;5051525;28;20374;-76
2022/10/29 02:44:40;;;;;;;38.58;8.55;;;;;;;;;;5051625;28;20359;-75
2022/10/29 02:47:06;;;;;;;38.38;8.38;;;;;;;;;;5054282;28;20491;-74
2022/10/29 02:49:32;;;;;;;47.00;8.80;;;;;;;;;;5038324;28;20543;-74
2022/10/29 02:51:58;;;;;;;40.70;9.88;;;;;;;;;;5055377;28;20512;-75
2022/10/29 02:54:24;;;;;;;33.67;8.93;;;;;;;;;;5053181;28;20380;-75
2022/10/29 02:56:50;;;;;;;35.90;8.70;;;;;;;;;;5051376;28;20485;-75
2022/10/29 02:59:16;;;;;;;39.53;9.07;;;;;;;;;;5059291;28;20025;-75
2022/10/29 03:01:42;;;;;;;44.22;9.55;;;;;;;;;;5058254;28;20036;-75
2022/10/29 03:04:09;;;;;;;36.55;9.40;;;;;;;;;;5059872;28;20021;-75
2022/10/29 03:06:36;;;;;;;32.00;8.35;;;;;;;;;;5061430;28;20033;-76
2022/10/29 03:09:02;;;;;;;39.60;8.73;;;;;;;;;;5060334;28;20017;-75
2022/10/29 03:11:28;;;;;;;41.08;8.60;;;;;;;;;;5058363;28;20079;-75
2022/10/29 03:13:54;;;;;;;34.92;8.65;;;;;;;;;;5037375;28;20024;-76
2022/10/29 03:16:20;;;;;;;33.58;9.07;;;;;;;;;;5038855;28;20470;-76
2022/10/29 03:18:46;;;;;;;46.70;9.52;;;;;;;;;;5058121;28;20053;-75
2022/10/29 03:21:12;;;;;;;46.55;9.63;;;;;;;;;;5060032;28;20095;-76
2022/10/29 03:23:38;;;;;;;44.95;9.57;;;;;;;;;;5060816;28;20458;-74
2022/10/29 03:26:04;;;;;;;37.65;9.38;;;;;;;;;;5060873;28;20135;-75
2022/10/29 03:28:30;;;;;;;40.80;9.45;;;;;;;;;;5042945;28;20055;-76
2022/10/29 03:30:59;;;;;;;40.55;9.27;;;;;;;;;;5060426;28;20105;-75
2022/10/29 03:33:25;;;;;;;42.00;9.75;;;;;;;;;;5056955;28;20033;-75
2022/10/29 03:35:56;;;;;;;44.33;9.30;;;;;;;;;;5057010;28;20086;-75
2022/10/29 03:38:22;;;;;;;32.80;8.88;;;;;;;;;;5055040;28;20382;-77
2022/10/29 03:40:48;;;;;;;38.90;10.18;;;;;;;;;;5054993;28;20496;-76
2022/10/29 03:43:13;;;;;;;36.03;9.15;;;;;;;;;;5054578;28;20029;-75
2022/10/29 03:45:39;;;;;;;47.72;11.70;;;;;;;;;;5037415;28;20029;-75
2022/10/29 03:48:06;;;;;;;47.00;10.80;;;;;;;;;;5055014;28;20028;-76
2022/10/29 03:50:31;;;;;;;43.25;11.32;;;;;;;;;;5055181;28;20474;-75
2022/10/29 03:52:58;;;;;;;33.58;10.90;;;;;;;;;;5054396;28;20029;-76
2022/10/29 03:55:23;;;;;;;51.50;11.65;;;;;;;;;;5036198;28;20036;-75
2022/10/29 03:57:49;;;;;;;36.58;10.98;;;;;;;;;;5054244;28;20021;-75
2022/10/29 04:00:15;;;;;;;50.55;12.10;;;;;;;;;;5054337;28;20091;-75
2022/10/29 04:02:42;;;;;;;48.58;11.52;;;;;;;;;;5054134;28;20025;-76
2022/10/29 04:05:08;;;;;;;60.00;14.13;;;;;;;;;;5054469;28;20040;-75
2022/10/29 04:07:34;;;;;;;48.22;13.05;;;;;;;;;;5053939;28;20029;-74
2022/10/29 04:10:00;;;;;;;46.17;10.95;;;;;;;;;;5054290;28;20025;-76
2022/10/29 04:12:26;;;;;;;48.80;12.38;;;;;;;;;;5036955;28;20343;-75
2022/10/29 04:14:52;;;;;;;41.25;11.00;;;;;;;;;;5054101;28;20074;-75
2022/10/29 04:17:17;;;;;;;43.88;12.18;;;;;;;;;;5053603;28;20056;-76
2022/10/29 04:19:43;;;;;;;37.72;10.20;;;;;;;;;;5054012;28;20025;-76
2022/10/29 04:22:09;;;;;;;36.95;11.25;;;;;;;;;;5036470;28;20052;-78
2022/10/29 04:24:35;;;;;;;42.67;10.88;;;;;;;;;;5058207;28;20029;-74
2022/10/29 04:27:01;;;;;;;50.05;12.52;;;;;;;;;;5059752;28;20109;-75
2022/10/29 04:29:27;;;;;;;47.42;12.48;;;;;;;;;;5057116;28;20090;-75
2022/10/29 04:31:53;;;;;;;35.70;12.10;;;;;;;;;;5057027;28;20074;-75
2022/10/29 04:34:19;;;;;;;43.65;11.35;;;;;;;;;;5039949;28;20055;-76
2022/10/29 04:36:45;;;;;;;42.42;11.70;;;;;;;;;;5057270;28;20051;-76
2022/10/29 04:39:11;;;;;;;37.25;11.88;;;;;;;;;;5037596;28;20544;-76
2022/10/29 04:41:37;;;;;;;37.33;11.93;;;;;;;;;;5056248;28;20024;-75
2022/10/29 04:44:03;;;;;;;34.03;11.45;;;;;;;;;;5059283;28;20485;-75
2022/10/29 04:46:29;;;;;;;46.08;11.65;;;;;;;;;;5063424;28;20025;-74
2022/10/29 04:48:55;;;;;;;33.03;11.02;;;;;;;;;;5062577;28;20021;-75
2022/10/29 04:51:22;;;;;;;43.42;12.25;;;;;;;;;;5065333;28;20469;-74
2022/10/29 04:53:48;;;;;;;38.72;11.02;;;;;;;;;;5067796;28;20084;-74
2022/10/29 04:56:14;;;;;;;39.95;10.50;;;;;;;;;;5059681;28;20040;-75
2022/10/29 04:58:40;;;;;;;37.83;11.70;;;;;;;;;;5053249;28;20037;-76
2022/10/29 05:01:06;;;;;;;55.60;12.82;;;;;;;;;;5053302;28;20063;-75
2022/10/29 05:03:32;;;;;;;47.00;12.95;;;;;;;;;;5053204;28;20051;-74
2022/10/29 05:05:58;;;;;;;41.03;12.80;;;;;;;;;;5053185;28;20025;-74
2022/10/29 05:08:24;;;;;;;43.50;12.63;;;;;;;;;;5053479;28;20028;-74
2022/10/29 05:10:50;;;;;;;43.65;15.85;;;;;;;;;;5053685;28;20385;-75
2022/10/29 05:13:16;;;;;;;37.88;12.55;;;;;;;;;;5053711;28;20394;-75
2022/10/29 05:15:42;;;;;;;48.55;12.80;;;;;;;;;;5053057;28;20428;-75
2022/10/29 05:18:09;;;;;;;45.13;11.88;;;;;;;;;;5053500;28;20573;-74
2022/10/29 05:20:35;;;;;;;33.38;11.82;;;;;;;;;;5053308;28;20028;-74
2022/10/29 05:23:06;;;;;;;36.50;11.10;;;;;;;;;;5053128;28;20025;-74
2022/10/29 05:25:33;;;;;;;34.15;11.95;;;;;;;;;;5053057;28;20535;-75
2022/10/29 05:28:07;;;;;;;34.60;12.85;;;;;;;;;;5053216;28;20075;-75
2022/10/29 05:30:34;;;;;;;46.30;12.77;;;;;;;;;;5053249;28;20486;-74
2022/10/29 05:33:00;;;;;;;41.58;14.15;;;;;;;;;;5053128;28;20052;-76
2022/10/29 05:35:26;;;;;;;40.67;14.45;;;;;;;;;;5035495;28;20040;-79
2022/10/29 05:37:52;;;;;;;55.15;15.88;;;;;;;;;;5053388;28;20542;-75
2022/10/29 05:40:19;;;;;;;44.92;14.63;;;;;;;;;;5052843;28;20029;-75
2022/10/29 05:42:45;;;;;;;49.60;14.68;;;;;;;;;;5052443;28;20044;-75
2022/10/29 05:45:11;;;;;;;44.53;14.52;;;;;;;;;;5052630;28;20021;-75
2022/10/29 05:47:37;;;;;;;43.15;14.50;;;;;;;;;;5034987;28;20021;-76
2022/10/29 05:50:03;;;;;;;51.92;15.63;;;;;;;;;;5053659;28;20136;-74
2022/10/29 05:52:29;;;;;;;43.78;14.70;;;;;;;;;;5053484;28;20493;-73
2022/10/29 05:54:55;;;;;;;44.22;13.13;;;;;;;;;;5052814;28;20104;-74
2022/10/29 05:57:21;;;;;;;47.70;14.27;;;;;;;;;;5052696;28;20501;-75
2022/10/29 05:59:46;;;;;;;43.05;14.77;;;;;;;;;;5052590;28;20029;-74
2022/10/29 06:02:12;;;;;;;45.90;14.57;;;;;;;;;;5052601;28;20534;-74
2022/10/29 06:04:38;;;;;;;44.03;15.85;;;;;;;;;;5053531;28;20536;-75
2022/10/29 06:07:04;;;;;;;47.78;15.60;;;;;;;;;;5055348;28;20029;-76
2022/10/29 06:09:30;;;;;;;50.08;18.08;;;;;;;;;;5059047;28;20028;-74
2022/10/29 06:11:57;;;;;;;45.03;14.35;;;;;;;;;;5058877;28;20025;-74
2022/10/29 06:14:23;;;;;;;40.90;14.80;;;;;;;;;;5060664;28;20024;-74
2022/10/29 06:16:49;;;;;;;52.33;15.35;;;;;;;;;;5068632;28;20071;-75
2022/10/29 06:19:15;;;;;;;53.05;15.32;;;;;;;;;;5069501;28;20033;-75
2022/10/29 06:21:41;;;;;;;42.38;14.05;;;;;;;;;;5066608;28;20473;-75
2022/10/29 06:24:07;;;;;;;46.75;14.23;;;;;;;;;;5066994;28;20055;-75
2022/10/29 06:26:33;;;;;;;43.10;16.13;;;;;;;;;;5066469;28;20025;-75
2022/10/29 06:28:59;;;;;;;45.72;15.68;;;;;;;;;;5066396;28;20081;-75
2022/10/29 06:31:25;;;;;;;54.35;17.05;;;;;;;;;;5065530;28;20498;-75
2022/10/29 06:33:51;;;;;;;44.42;17.75;;;;;;;;;;5060496;28;20025;-76
2022/10/29 06:36:17;;;;;;;46.13;16.80;;;;;;;;;;5059647;28;20125;-75
2022/10/29 06:38:43;;;;;;;51.03;16.45;;;;;;;;;;5057655;28;20503;-76
2022/10/29 06:41:09;;;;;;;58.03;17.65;;;;;;;;;;5061189;28;20029;-75
2022/10/29 06:43:35;;;;;;;47.70;16.13;;;;;;;;;;5061057;28;20079;-75
2022/10/29 06:46:01;;;;;;;46.55;17.23;;;;;;;;;;5035443;28;20120;-75
2022/10/29 06:48:27;;;;;;;47.83;16.48;;;;;;;;;;5054709;28;20066;-76
2022/10/29 06:50:53;;;;;;;48.10;16.13;;;;;;;;;;5035155;28;20071;-74
2022/10/29 06:53:19;;;;;;;49.65;15.75;;;;;;;;;;5053536;28;20024;-76
2022/10/29 06:55:45;;;;;;;43.10;14.77;;;;;;;;;;5056291;28;20339;-74
2022/10/29 06:58:13;;;;;;;59.20;17.50;;;;;;;;;;5056840;28;20040;-75
2022/10/29 07:00:39;;;;;;;44.97;16.10;;;;;;;;;;5056784;28;20378;-74
2022/10/29 07:03:06;;;;;;;45.33;17.83;;;;;;;;;;5069389;28;20028;-76
2022/10/29 07:05:32;;;;;;;40.58;17.30;;;;;;;;;;5072116;28;20017;-76
2022/10/29 07:07:59;;;;;;;39.45;17.10;;;;;;;;;;5057840;28;20033;-75
2022/10/29 07:10:26;;;;;;;52.72;17.50;;;;;;;;;;5070810;28;20033;-74
2022/10/29 07:12:52;;;;;;;48.67;19.38;;;;;;;;;;5059091;28;20393;-77
2022/10/29 07:15:18;;;;;;;44.85;18.02;;;;;;;;;;5056542;28;20055;-76
2022/10/29 07:17:54;;;;;;;48.67;18.42;;;;;;;;;;5108756;22;20074;-76
2022/10/29 07:20:20;;;;;;;48.42;18.95;;;;;;;;;;5088644;28;20468;-76
2022/10/29 07:22:46;;;;;;;52.63;17.75;;;;;;;;;;5078282;28;20100;-76
2022/10/29 07:25:12;;;;;;;35.30;17.70;;;;;;;;;;5088177;28;20036;-77
2022/10/29 07:27:38;;;;;;;50.08;17.02;;;;;;;;;;5077854;28;20024;-76
2022/10/29 07:30:04;;;;;;;45.47;19.83;;;;;;;;;;5077307;28;20070;-76
2022/10/29 07:32:30;;;;;;;41.83;18.92;;;;;;;;;;5076500;28;20028;-76
2022/10/29 07:34:56;;;;;;;44.67;19.60;;;;;;;;;;5076665;28;20033;-77
2022/10/29 07:37:22;;;;;;;49.70;17.45;;;;;;;;;;5079202;28;20028;-76
2022/10/29 07:39:48;;;;;;;48.22;19.25;;;;;;;;;;5078639;28;20115;-76
2022/10/29 07:42:14;;;;;;;45.97;19.52;;;;;;;;;;5077425;28;20035;-76
2022/10/29 07:44:40;;;;;;;46.35;22.45;;;;;;;;;;5079702;28;20035;-76
2022/10/29 07:47:06;;;;;;;56.90;25.38;;;;;;;;;;5077992;28;20282;-78
2022/10/29 07:49:32;;;;;;;54.53;24.63;;;;;;;;;;5078612;28;20075;-77
2022/10/29 07:51:57;;;;;;;58.40;24.10;;;;;;;;;;5079085;28;20035;-77
2022/10/29 07:54:23;;;;;;;49.83;21.27;;;;;;;;;;5090336;28;20048;-76
2022/10/29 07:56:51;;;;;;;51.60;21.70;;;;;;;;;;5094564;28;20021;-76
2022/10/29 07:59:18;;;;;;;39.85;19.05;;;;;;;;;;5095682;28;20068;-76
2022/10/29 08:01:44;;;;;;;55.53;20.95;;;;;;;;;;5096844;28;20031;-77
2022/10/29 08:04:10;;;;;;;54.20;18.45;;;;;;;;;;5089767;28;20036;-76
2022/10/29 08:06:36;;;;;;;48.38;17.75;;;;;;;;;;5098146;28;20072;-76
2022/10/29 08:09:02;;;;;;;54.95;18.08;;;;;;;;;;5099739;28;20035;-76
2022/10/29 08:11:30;;;;;;;40.70;17.15;;;;;;;;;;5098953;28;20017;-76
2022/10/29 08:13:56;;;;;;;40.97;17.75;;;;;;;;;;5098825;28;20084;-76
2022/10/29 08:16:22;;;;;;;46.33;17.75;;;;;;;;;;5096488;28;20047;-76
2022/10/29 08:18:48;;;;;;;40.10;16.33;;;;;;;;;;5099281;28;20028;-76
2022/10/29 08:21:14;;;;;;;45.97;17.48;;;;;;;;;;5099214;28;20041;-76
2022/10/29 08:23:40;;;;;;;44.80;17.13;;;;;;;;;;5097484;28;20041;-76
2022/10/29 08:26:06;;;;;;;44.15;17.75;;;;;;;;;;5096510;28;20012;-77
2022/10/29 08:28:32;;;;;;;51.28;17.42;;;;;;;;;;5077494;28;20465;-76
2022/10/29 08:30:58;;;;;;;42.33;15.68;;;;;;;;;;5079271;28;20028;-76
2022/10/29 08:33:24;;;;;;;34.30;14.90;;;;;;;;;;5079244;28;20028;-77
2022/10/29 08:35:50;;;;;;;41.72;15.75;;;;;;;;;;5073615;28;20032;-77
2022/10/29 08:38:16;;;;;;;38.25;16.52;;;;;;;;;;5076344;28;20021;-77
2022/10/29 08:40:58;;;;;;;39.70;16.65;;;;;;;;;;5075970;28;20432;-76
2022/10/29 08:43:23;;;;;;;38.38;17.40;;;;;;;;;;5077094;28;20055;-76
2022/10/29 08:45:54;;;;;;;37.05;15.77;;;;;;;;;;5077315;28;20029;-78
2022/10/29 08:48:24;;;;;;;40.90;17.27;;;;;;;;;;5077991;28;20024;-76
2022/10/29 08:50:52;;;;;;;38.10;17.02;;;;;;;;;;5075616;28;20048;-76
2022/10/29 08:53:24;;;;;;;40.90;18.30;;;;;;;;;;5078677;28;20076;-76
2022/10/29 08:55:50;;;;;;;47.38;20.45;;;;;;;;;;5072688;28;20426;-77
2022/10/29 08:58:36;;;;;;;37.58;16.73;;;;;;;;;;5076454;28;20028;-78
2022/10/29 09:01:01;;;;;;;44.15;18.80;;;;;;;;;;5078425;28;20078;-76
2022/10/29 09:03:31;;;;;;;40.25;18.40;;;;;;;;;;5085927;28;20225;-76
2022/10/29 09:06:05;;;;;;;39.92;18.63;;;;;;;;;;5091502;28;20029;-76
2022/10/29 09:08:39;;;;;;;45.15;17.38;;;;;;;;;;5091808;28;20024;-76
2022/10/29 09:11:13;;;;;;;47.03;22.20;;;;;;;;;;5086777;28;20088;-77
2022/10/29 09:13:39;;;;;;;51.60;22.67;;;;;;;;;;5092978;28;20031;-76
2022/10/29 09:16:18;;;;;;;54.42;23.80;;;;;;;;;;5079995;28;20459;-77
2022/10/29 09:18:47;;;;;;;55.35;23.30;;;;;;;;;;5080411;28;20550;-77
2022/10/29 09:21:24;;;;;;;54.90;25.05;;;;;;;;;;5081068;28;20032;-77
2022/10/29 09:24:04;;;;;;;43.63;20.67;;;;;;;;;;5079670;28;20111;-76
2022/10/29 09:26:30;;;;;;;44.30;19.45;;;;;;;;;;5077687;28;20028;-77
2022/10/29 09:29:08;;;;;;;50.50;20.00;;;;;;;;;;5079721;28;20020;-76
2022/10/29 09:31:45;;;;;;;44.63;19.02;;;;;;;;;;5075747;28;20020;-77
2022/10/29 09:34:17;;;;;;;35.00;16.60;;;;;;;;;;5081765;28;20028;-76
2022/10/29 09:36:44;;;;;;;39.92;19.23;;;;;;;;;;5092735;28;20004;-77
2022/10/29 09:39:15;;;;;;;40.88;18.27;;;;;;;;;;5079463;28;20106;-77
2022/10/29 09:41:42;;;;;;;37.15;16.75;;;;;;;;;;5078891;28;20021;-78
2022/10/29 09:44:23;;;;;;;40.72;17.70;;;;;;;;;;5077458;28;20278;-77
2022/10/29 09:47:11;;;;;;;38.25;16.83;;;;;;;;;;5077244;28;20090;-77
2022/10/29 09:49:49;;;;;;;40.97;17.73;;;;;;;;;;5077457;28;20025;-76
2022/10/29 09:52:18;;;;;;;41.70;18.95;;;;;;;;;;5083618;28;20051;-75
2022/10/29 09:54:44;;;;;;;39.38;17.42;;;;;;;;;;5083363;28;20027;-77
2022/10/29 09:57:17;;;;;;;45.45;18.33;;;;;;;;;;5080053;28;20082;-77
2022/10/29 09:59:48;;;;;;;50.67;18.70;;;;;;;;;;5076721;28;20021;-77
2022/10/29 10:02:30;;;;;;;37.47;17.45;;;;;;;;;;5078187;28;20044;-78
2022/10/29 10:05:01;;;;;;;43.00;18.58;;;;;;;;;;5081105;28;20080;-75
2022/10/29 10:07:28;;;;;;;40.17;20.00;;;;;;;;;;5077473;28;20537;-77
2022/10/29 10:09:54;;;;;;;56.70;30.05;;;;;;;;;;5074444;28;20166;-76
2022/10/29 10:12:21;;;;;;;48.90;20.05;;;;;;;;;;5073828;28;20071;-77
2022/10/29 10:14:47;;;;;;;39.58;18.50;;;;;;;;;;5076815;28;20086;-77
2022/10/29 10:17:14;;;;;;;43.35;18.45;;;;;;;;;;5073529;28;20044;-76
2022/10/29 10:19:44;;;;;;;47.13;19.33;;;;;;;;;;5075216;28;20036;-77
2022/10/29 10:22:20;;;;;;;40.90;18.55;;;;;;;;;;5073336;28;20024;-75
2022/10/29 10:24:47;;;;;;;45.83;18.42;;;;;;;;;;5075258;28;20099;-78
2022/10/29 10:27:19;;;;;;;49.88;18.92;;;;;;;;;;5075795;28;20315;-77
2022/10/29 10:30:03;;;;;;;40.78;17.27;;;;;;;;;;5075942;28;20031;-77
2022/10/29 10:32:29;;;;;;;42.50;17.13;;;;;;;;;;5075490;28;20036;-77
2022/10/29 10:34:55;;;;;;;42.35;17.33;;;;;;;;;;5072731;28;20025;-76
2022/10/29 10:37:21;;;;;;;42.60;16.52;;;;;;;;;;5074024;28;20370;-76
2022/10/29 10:39:52;;;;;;;47.00;17.65;;;;;;;;;;5075403;28;20032;-77
2022/10/29 10:42:28;;;;;;;51.65;17.75;;;;;;;;;;5074029;28;20683;-77
2022/10/29 10:44:58;;;;;;;47.28;16.48;;;;;;;;;;5074614;28;20117;-77
2022/10/29 10:47:26;;;;;;;40.28;15.43;;;;;;;;;;5076125;28;20013;-76
2022/10/29 10:49:52;;;;;;;40.28;16.13;;;;;;;;;;5075081;28;20024;-77
2022/10/29 10:52:24;;;;;;;45.90;16.77;;;;;;;;;;5076197;28;20017;-78
2022/10/29 10:54:55;;;;;;;40.22;16.30;;;;;;;;;;5075846;28;20025;-76
2022/10/29 10:57:22;;;;;;;41.15;15.23;;;;;;;;;;5075256;28;20024;-78
2022/10/29 10:59:54;;;;;;;46.70;17.40;;;;;;;;;;5075306;28;20340;-77
2022/10/29 11:02:25;;;;;;;47.75;18.83;;;;;;;;;;5074939;28;20027;-77
2022/10/29 11:04:56;;;;;;;49.53;18.05;;;;;;;;;;5074776;28;20017;-78
2022/10/29 11:07:23;;;;;;;46.20;17.35;;;;;;;;;;5077497;28;20081;-77
2022/10/29 11:09:50;;;;;;;40.70;16.63;;;;;;;;;;5078345;28;20089;-77
2022/10/29 11:12:29;;;;;;;45.28;17.90;;;;;;;;;;5075232;28;20028;-77
2022/10/29 11:14:59;;;;;;;41.88;15.90;;;;;;;;;;5072405;28;20055;-77
2022/10/29 11:17:26;;;;;;;46.28;16.65;;;;;;;;;;5073574;28;20062;-77
2022/10/29 11:19:54;;;;;;;43.00;15.75;;;;;;;;;;5072525;28;20028;-77
2022/10/29 11:22:20;;;;;;;48.38;20.98;;;;;;;;;;5073191;28;20040;-77
2022/10/29 11:24:57;;;;;;;36.25;15.20;;;;;;;;;;5073535;28;20020;-76
2022/10/29 11:27:26;;;;;;;42.65;16.42;;;;;;;;;;5073812;28;20376;-77
2022/10/29 11:29:55;;;;;;;46.70;16.75;;;;;;;;;;5074011;28;20103;-77
2022/10/29 11:32:28;;;;;;;57.30;16.85;;;;;;;;;;5073032;28;20024;-77
2022/10/29 11:35:05;;;;;;;38.25;16.40;;;;;;;;;;5073947;28;20131;-77
2022/10/29 11:37:31;;;;;;;45.90;16.27;;;;;;;;;;5072125;28;20090;-77
2022/10/29 11:39:59;;;;;;;46.63;16.35;;;;;;;;;;5074721;28;20029;-77
2022/10/29 11:42:25;;;;;;;52.00;19.92;;;;;;;;;;5077018;28;20024;-76
2022/10/29 11:44:52;;;;;;;40.65;16.17;;;;;;;;;;5077556;28;20099;-76
2022/10/29 11:47:27;;;;;;;44.30;16.70;;;;;;;;;;5076517;28;20021;-77
2022/10/29 11:50:12;;;;;;;40.25;16.05;;;;;;;;;;5079115;28;20029;-77
2022/10/29 11:52:38;;;;;;;;;;;;;;;;;;5077749;28;20025;-76
2022/10/29 11:55:17;;;;;;;49.35;18.50;;;;;;;;;;5076162;28;20292;-77
2022/10/29 11:57:47;;;;;;;50.58;17.23;;;;;;;;;;5076559;28;20482;-76
2022/10/29 12:00:15;;;;;;;54.75;18.42;;;;;;;;;;5077564;28;20424;-77
2022/10/29 12:02:50;;;;;;;52.63;18.27;;;;;;;;;;5078885;28;20031;-77
2022/10/29 12:05:28;;;;;;;42.58;16.70;;;;;;;;;;5083374;28;20021;-77
2022/10/29 12:08:03;;;;;;;51.65;18.60;;;;;;;;;;5079320;28;20055;-76
2022/10/29 12:10:33;;;;;;;53.35;17.92;;;;;;;;;;5080527;28;20075;-76
2022/10/29 12:13:08;;;;;;;59.63;19.00;;;;;;;;;;5080660;28;20497;-76
2022/10/29 12:16:00;;;;;;;41.60;15.52;;;;;;;;;;5079661;28;20024;-76
2022/10/29 12:18:26;;;;;;;49.08;18.55;;;;;;;;;;5079783;28;20049;-77
2022/10/29 12:20:53;;;;;;;48.63;19.83;;;;;;;;;;5076995;28;20085;-76
2022/10/29 12:23:45;;;;;;;44.05;18.83;;;;;;;;;;5076245;28;20500;-75
2022/10/29 12:26:11;;;;;;;49.80;14.85;;;;;;;;;;5073698;28;20386;-76
2022/10/29 12:28:49;;;;;;;37.15;14.10;;;;;;;;;;5081251;28;20107;-76
2022/10/29 12:31:26;;;;;;;41.63;19.10;;;;;;;;;;5076004;28;20021;-76
2022/10/29 12:33:58;;;;;;;45.05;13.82;;;;;;;;;;5076477;28;20035;-77
2022/10/29 12:36:37;;;;;;;40.40;13.48;;;;;;;;;;5074730;28;20028;-76
2022/10/29 12:39:05;;;;;;;37.22;13.82;;;;;;;;;;5078620;28;20021;-76
2022/10/29 12:41:45;;;;;;;47.65;14.63;;;;;;;;;;5078917;28;20032;-76
2022/10/29 12:44:17;;;;;;;40.85;13.23;;;;;;;;;;5077298;28;20024;-76
2022/10/29 12:47:01;;;;;;;50.65;15.57;;;;;;;;;;5075069;28;20025;-77
2022/10/29 12:49:27;;;;;;;39.47;12.75;;;;;;;;;;5076391;28;20500;-77
2022/10/29 12:52:03;;;;;;;43.10;14.73;;;;;;;;;;5074230;28;20123;-76
2022/10/29 12:54:36;;;;;;;51.60;14.23;;;;;;;;;;5075496;28;20079;-78
2022/10/29 12:57:03;;;;;;;55.40;16.10;;;;;;;;;;5076989;28;20035;-76
2022/10/29 12:59:31;;;;;;;46.80;14.57;;;;;;;;;;5076566;28;20025;-77
2022/10/29 13:02:20;;;;;;;41.58;13.88;;;;;;;;;;5076241;28;20052;-77
2022/10/29 13:05:09;;;;;;;51.88;17.25;;;;;;;;;;5076607;28;20131;-76
2022/10/29 13:07:35;;;;;;;41.15;12.60;;;;;;;;;;5067813;28;20085;-78
2022/10/29 13:10:20;;;;;;;42.67;12.73;;;;;;;;;;5078865;28;20400;-78
2022/10/29 13:13:04;;;;;;;49.35;13.98;;;;;;;;;;5078851;28;20123;-76
2022/10/29 13:15:42;;;;;;;38.03;11.30;;;;;;;;;;5080207;28;20032;-77
2022/10/29 13:18:11;;;;;;;43.45;11.30;;;;;;;;;;5083469;22;20054;-75
2022/10/29 13:20:42;;;;;;;40.75;12.23;;;;;;;;;;5061594;28;20043;-75
2022/10/29 13:23:23;;;;;;;34.30;11.25;;;;;;;;;;5062899;28;20029;-76
2022/10/29 13:25:53;;;;;;;37.13;11.85;;;;;;;;;;5063515;28;20025;-75
2022/10/29 13:28:19;;;;;;;41.25;12.65;;;;;;;;;;5064516;28;20118;-73
2022/10/29 13:30:46;;;;;;;41.78;12.10;;;;;;;;;;5045488;28;20025;-74
2022/10/29 13:33:18;;;;;;;40.85;11.95;;;;;;;;;;5063837;28;20028;-74
2022/10/29 13:35:51;;;;;;;42.80;11.23;;;;;;;;;;5062110;28;20036;-75
2022/10/29 13:38:17;;;;;;;39.78;11.38;;;;;;;;;;5059089;28;20024;-74
2022/10/29 13:40:43;;;;;;;51.15;14.90;;;;;;;;;;5062439;28;20377;-73
2022/10/29 13:43:17;;;;;;;42.30;13.70;;;;;;;;;;5061531;28;20110;-73
2022/10/29 13:45:49;;;;;;;40.13;13.50;;;;;;;;;;5058988;28;20021;-76
2022/10/29 13:48:28;;;;;;;31.10;10.23;;;;;;;;;;5057426;28;20028;-76
2022/10/29 13:50:55;;;;;;;34.13;11.10;;;;;;;;;;5040562;28;20029;-77
2022/10/29 13:53:25;;;;;;;41.55;10.93;;;;;;;;;;5061793;28;20035;-74
2022/10/29 13:55:51;;;;;;;36.15;10.55;;;;;;;;;;5066703;28;20021;-74
2022/10/29 13:58:21;;;;;;;42.70;11.90;;;;;;;;;;5058255;28;20033;-74
2022/10/29 14:00:47;;;;;;;37.60;10.88;;;;;;;;;;5059727;28;20470;-75
2022/10/29 14:03:16;;;;;;;39.90;10.57;;;;;;;;;;5040731;28;20368;-75
2022/10/29 14:05:44;;;;;;;36.80;10.27;;;;;;;;;;5060428;28;20025;-74
2022/10/29 14:08:20;;;;;;;44.55;13.68;;;;;;;;;;5056553;28;20028;-74
2022/10/29 14:10:47;;;;;;;37.35;12.25;;;;;;;;;;5053979;28;20066;-74
2022/10/29 14:13:13;;;;;;;34.45;11.85;;;;;;;;;;5053190;28;20459;-75
2022/10/29 14:15:58;;;;;;;42.80;13.05;;;;;;;;;;5052660;28;20040;-75
2022/10/29 14:18:25;;;;;;;48.95;15.05;;;;;;;;;;5052883;28;20116;-76
2022/10/29 14:20:57;;;;;;;45.83;12.98;;;;;;;;;;5053028;28;20483;-75
2022/10/29 14:23:23;;;;;;;52.97;19.15;;;;;;;;;;5052651;28;20036;-76
2022/10/29 14:25:57;;;;;;;47.67;18.60;;;;;;;;;;5053255;28;20076;-75
2022/10/29 14:28:22;;;;;;;37.50;12.17;;;;;;;;;;5036128;28;20021;-76
2022/10/29 14:30:58;;;;;;;35.53;10.45;;;;;;;;;;5055121;28;20025;-75